N061SB KLAS-KMOD
Flight info
| Callsign | N061SB |
|---|---|
| Flight time | N/A |
| Altitude | 26000 |
| Route | JOHKR5 KENNO BIH DLRAY MOD |
| Aircraft | BE60/L-SDFGRY/C |
Departure
| Time | 2026-05-04 06:05 |
|---|---|
| Airport | Harry Reid International Airport (KLAS) |
Arrival
| Time | N/A |
|---|---|
| Airport | Modesto City Co-Harry Sham Field (KMOD) |
| Time | Latitude | Longitude | Altitude | Speed | Heading |
|---|---|---|---|---|---|
| 2026-05-04 05:51 | 36.07965 | -115.12537 | 2102 ft | 0 kts | 89° |
| 2026-05-04 05:58 | 36.07961 | -115.12530 | 2102 ft | 3 kts | 149° |
| 2026-05-04 05:58 | 36.07964 | -115.12573 | 2103 ft | 9 kts | 273° |
| 2026-05-04 05:58 | 36.07941 | -115.12606 | 2104 ft | 5 kts | 252° |
| 2026-05-04 05:59 | 36.07933 | -115.12638 | 2105 ft | 3 kts | 195° |
| 2026-05-04 05:59 | 36.07865 | -115.12638 | 2107 ft | 15 kts | 187° |
| 2026-05-04 05:59 | 36.07827 | -115.12702 | 2109 ft | 3 kts | 261° |
| 2026-05-04 05:59 | 36.07825 | -115.12666 | 2109 ft | 14 kts | 80° |
| 2026-05-04 06:00 | 36.07827 | -115.12492 | 2111 ft | 25 kts | 90° |
| 2026-05-04 06:00 | 36.07828 | -115.12428 | 2112 ft | 0 kts | 91° |
| 2026-05-04 06:01 | 36.07828 | -115.12421 | 2112 ft | 5 kts | 93° |
| 2026-05-04 06:01 | 36.07828 | -115.12305 | 2112 ft | 18 kts | 90° |
| 2026-05-04 06:03 | 36.07732 | -115.12131 | 2117 ft | 0 kts | 154° |
| 2026-05-04 06:05 | 36.07727 | -115.15392 | 3101 ft | 108 kts | 275° |
| 2026-05-04 06:05 | 36.07897 | -115.17373 | 3976 ft | 114 kts | 270° |
| 2026-05-04 06:05 | 36.07972 | -115.18315 | 4534 ft | 106 kts | 269° |
| 2026-05-04 06:06 | 36.08032 | -115.19190 | 5104 ft | 98 kts | 265° |
| 2026-05-04 06:06 | 36.08104 | -115.20031 | 5612 ft | 97 kts | 265° |
| 2026-05-04 06:06 | 36.08224 | -115.20834 | 6125 ft | 95 kts | 262° |
| 2026-05-04 06:06 | 36.08224 | -115.21582 | 6675 ft | 85 kts | 259° |
| 2026-05-04 06:07 | 36.08285 | -115.22323 | 7134 ft | 89 kts | 262° |
| 2026-05-04 06:07 | 36.08402 | -115.23092 | 7570 ft | 94 kts | 265° |
| 2026-05-04 06:07 | 36.08580 | -115.23883 | 8006 ft | 98 kts | 269° |
| 2026-05-04 06:07 | 36.08778 | -115.24683 | 8493 ft | 97 kts | 268° |
| 2026-05-04 06:08 | 36.08934 | -115.25493 | 8925 ft | 97 kts | 264° |
| 2026-05-04 06:08 | 36.08985 | -115.26301 | 9387 ft | 92 kts | 257° |
| 2026-05-04 06:08 | 36.08938 | -115.27083 | 9838 ft | 90 kts | 245° |
| 2026-05-04 06:08 | 36.08536 | -115.27685 | 10204 ft | 98 kts | 217° |
| 2026-05-04 06:09 | 36.07798 | -115.27749 | 10639 ft | 122 kts | 184° |
| 2026-05-04 06:09 | 36.06992 | -115.27228 | 11123 ft | 135 kts | 170° |
| 2026-05-04 06:11 | 36.01766 | -115.28110 | 13977 ft | 112 kts | 214° |
| 2026-05-04 06:11 | 36.01075 | -115.28539 | 14364 ft | 113 kts | 219° |
| 2026-05-04 06:13 | 35.95892 | -115.31512 | 17124 ft | 113 kts | 222° |
| 2026-05-04 06:14 | 35.91263 | -115.34731 | 19329 ft | 135 kts | 206° |
| 2026-05-04 06:14 | 35.90334 | -115.35056 | 19601 ft | 142 kts | 208° |
| 2026-05-04 06:15 | 35.89406 | -115.35471 | 19980 ft | 140 kts | 212° |
| 2026-05-04 06:15 | 35.88529 | -115.35941 | 20405 ft | 136 kts | 216° |
| 2026-05-04 06:15 | 35.87719 | -115.36572 | 20697 ft | 140 kts | 224° |
| 2026-05-04 06:15 | 35.87045 | -115.37428 | 21062 ft | 138 kts | 232° |
| 2026-05-04 06:16 | 35.86527 | -115.38429 | 21338 ft | 143 kts | 242° |
| 2026-05-04 06:16 | 35.86274 | -115.39633 | 21578 ft | 151 kts | 258° |
| 2026-05-04 06:16 | 35.86354 | -115.40911 | 22034 ft | 151 kts | 272° |
| 2026-05-04 06:16 | 35.86773 | -115.42153 | 22292 ft | 165 kts | 285° |
| 2026-05-04 06:17 | 35.87394 | -115.43390 | 22511 ft | 171 kts | 288° |
| 2026-05-04 06:17 | 35.88102 | -115.44570 | 22853 ft | 172 kts | 294° |
| 2026-05-04 06:17 | 35.88881 | -115.45706 | 23015 ft | 170 kts | 287° |
| 2026-05-04 06:17 | 35.89174 | -115.46974 | 23337 ft | 140 kts | 254° |
| 2026-05-04 06:18 | 35.88872 | -115.48048 | 23585 ft | 135 kts | 244° |
| 2026-05-04 06:18 | 35.88592 | -115.49198 | 23625 ft | 145 kts | 254° |
| 2026-05-04 06:18 | 35.88572 | -115.50456 | 23858 ft | 149 kts | 265° |
| 2026-05-04 06:20 | 35.88829 | -115.59521 | 24945 ft | 148 kts | 251° |
| 2026-05-04 06:20 | 35.88668 | -115.60800 | 25013 ft | 152 kts | 258° |
| 2026-05-04 06:21 | 35.89301 | -115.65918 | 25573 ft | 153 kts | 270° |
| 2026-05-04 06:21 | 35.89491 | -115.67170 | 25742 ft | 147 kts | 267° |
| 2026-05-04 06:22 | 35.89567 | -115.68427 | 25741 ft | 147 kts | 259° |
| 2026-05-04 06:22 | 35.89396 | -115.69648 | 25811 ft | 142 kts | 245° |
| 2026-05-04 06:25 | 35.89461 | -115.88856 | 25829 ft | 212 kts | 264° |
| 2026-05-04 06:25 | 35.89492 | -115.90678 | 25830 ft | 213 kts | 264° |
| 2026-05-04 06:26 | 35.89550 | -115.92513 | 25831 ft | 217 kts | 270° |
| 2026-05-04 06:26 | 35.90053 | -115.94325 | 25838 ft | 234 kts | 291° |
| 2026-05-04 06:26 | 35.91208 | -115.95854 | 25834 ft | 250 kts | 306° |
| 2026-05-04 06:26 | 35.92454 | -115.97334 | 25829 ft | 248 kts | 303° |
| 2026-05-04 06:27 | 35.97298 | -116.03406 | 25832 ft | 250 kts | 303° |
| 2026-05-04 06:28 | 35.98530 | -116.04929 | 25833 ft | 250 kts | 303° |
| 2026-05-04 06:28 | 35.99760 | -116.06449 | 25839 ft | 251 kts | 303° |
| 2026-05-04 06:28 | 36.00997 | -116.07975 | 25836 ft | 252 kts | 303° |
| 2026-05-04 06:28 | 36.02242 | -116.09509 | 25838 ft | 253 kts | 303° |
| 2026-05-04 06:29 | 36.03489 | -116.11050 | 25836 ft | 254 kts | 303° |
| 2026-05-04 06:29 | 36.04718 | -116.12577 | 25833 ft | 254 kts | 303° |
| 2026-05-04 06:29 | 36.05970 | -116.14130 | 25836 ft | 255 kts | 303° |
| 2026-05-04 06:29 | 36.07226 | -116.15684 | 25835 ft | 256 kts | 303° |
| 2026-05-04 06:30 | 36.08484 | -116.17242 | 25833 ft | 256 kts | 303° |
| 2026-05-04 06:30 | 36.09741 | -116.18798 | 25832 ft | 256 kts | 303° |
| 2026-05-04 06:30 | 36.10997 | -116.20355 | 25826 ft | 256 kts | 303° |
| 2026-05-04 06:30 | 36.12252 | -116.21911 | 25829 ft | 255 kts | 303° |
| 2026-05-04 06:31 | 36.13508 | -116.23470 | 25834 ft | 256 kts | 303° |
| 2026-05-04 06:31 | 36.14764 | -116.25031 | 25831 ft | 256 kts | 303° |
| 2026-05-04 06:31 | 36.16021 | -116.26593 | 25831 ft | 256 kts | 303° |
| 2026-05-04 06:31 | 36.17261 | -116.28134 | 25830 ft | 256 kts | 303° |
| 2026-05-04 06:32 | 36.18518 | -116.29697 | 25833 ft | 256 kts | 303° |
| 2026-05-04 06:33 | 36.27278 | -116.40611 | 25832 ft | 254 kts | 303° |
| 2026-05-04 06:34 | 36.28510 | -116.42150 | 25834 ft | 254 kts | 303° |
| 2026-05-04 06:34 | 36.29779 | -116.43684 | 25833 ft | 255 kts | 304° |
| 2026-05-04 06:34 | 36.31066 | -116.45197 | 25835 ft | 255 kts | 304° |
| 2026-05-04 06:34 | 36.32351 | -116.46711 | 25829 ft | 255 kts | 304° |
| 2026-05-04 06:35 | 36.33633 | -116.48227 | 25834 ft | 254 kts | 304° |
| 2026-05-04 06:36 | 36.42567 | -116.58862 | 25825 ft | 254 kts | 304° |
| 2026-05-04 06:37 | 36.43837 | -116.60377 | 25823 ft | 253 kts | 304° |
| 2026-05-04 06:37 | 36.44676 | -116.61377 | 25831 ft | 252 kts | 304° |
| 2026-05-04 06:37 | 36.45962 | -116.62869 | 25834 ft | 254 kts | 306° |
| 2026-05-04 06:37 | 36.47268 | -116.64344 | 25834 ft | 254 kts | 306° |
| 2026-05-04 06:38 | 36.48576 | -116.65813 | 25840 ft | 254 kts | 306° |
| 2026-05-04 06:38 | 36.49884 | -116.67287 | 25835 ft | 254 kts | 306° |
| 2026-05-04 06:40 | 36.59064 | -116.77734 | 25820 ft | 257 kts | 306° |
| 2026-05-04 06:40 | 36.60378 | -116.79232 | 25826 ft | 256 kts | 306° |
| 2026-05-04 06:40 | 36.61693 | -116.80730 | 25835 ft | 257 kts | 306° |
| 2026-05-04 06:40 | 36.63009 | -116.82233 | 25836 ft | 257 kts | 305° |
| 2026-05-04 06:41 | 36.64327 | -116.83741 | 25833 ft | 257 kts | 306° |
| 2026-05-04 06:41 | 36.65630 | -116.85229 | 25828 ft | 258 kts | 306° |
| 2026-05-04 06:41 | 36.66954 | -116.86738 | 25835 ft | 258 kts | 306° |
| 2026-05-04 06:41 | 36.68278 | -116.88253 | 25823 ft | 259 kts | 306° |
| 2026-05-04 06:42 | 36.69605 | -116.89762 | 25832 ft | 258 kts | 306° |
| 2026-05-04 06:42 | 36.70927 | -116.91283 | 25836 ft | 259 kts | 306° |
| 2026-05-04 06:42 | 36.72253 | -116.92807 | 25834 ft | 260 kts | 306° |
| 2026-05-04 06:44 | 36.83690 | -117.00870 | 25819 ft | 268 kts | 320° |
| 2026-05-04 06:44 | 36.85331 | -117.01974 | 25829 ft | 268 kts | 320° |
| 2026-05-04 06:44 | 36.86981 | -117.03065 | 25823 ft | 268 kts | 320° |
| 2026-05-04 06:45 | 36.88634 | -117.04142 | 25824 ft | 268 kts | 320° |
| 2026-05-04 06:45 | 36.90276 | -117.05223 | 25837 ft | 267 kts | 320° |
| 2026-05-04 06:45 | 36.91929 | -117.06293 | 25836 ft | 268 kts | 321° |
| 2026-05-04 06:45 | 36.93580 | -117.07362 | 25826 ft | 266 kts | 320° |
| 2026-05-04 06:46 | 36.95203 | -117.08409 | 25830 ft | 267 kts | 321° |
| 2026-05-04 06:46 | 36.96852 | -117.09467 | 25830 ft | 266 kts | 320° |
| 2026-05-04 06:46 | 36.98495 | -117.10535 | 25825 ft | 266 kts | 320° |
| 2026-05-04 06:46 | 37.00137 | -117.11599 | 25833 ft | 266 kts | 320° |
| 2026-05-04 06:48 | 37.11584 | -117.19078 | 25833 ft | 268 kts | 320° |
| 2026-05-04 06:48 | 37.13239 | -117.20159 | 25830 ft | 269 kts | 320° |
| 2026-05-04 06:49 | 37.14897 | -117.21242 | 25829 ft | 269 kts | 321° |
| 2026-05-04 06:50 | 37.26463 | -117.28820 | 25827 ft | 269 kts | 320° |
| 2026-05-04 06:51 | 37.27991 | -117.30075 | 25834 ft | 256 kts | 306° |
| 2026-05-04 06:51 | 37.29121 | -117.31711 | 25833 ft | 242 kts | 292° |
| 2026-05-04 06:51 | 37.29844 | -117.33562 | 25837 ft | 232 kts | 279° |
| 2026-05-04 06:51 | 37.30170 | -117.35498 | 25831 ft | 224 kts | 268° |
| 2026-05-04 06:52 | 37.30305 | -117.37443 | 25834 ft | 224 kts | 268° |
| 2026-05-04 06:52 | 37.30461 | -117.39394 | 25830 ft | 225 kts | 268° |
| 2026-05-04 06:52 | 37.30621 | -117.41348 | 25825 ft | 224 kts | 268° |
| 2026-05-04 06:52 | 37.30780 | -117.43274 | 25831 ft | 225 kts | 268° |
| 2026-05-04 06:53 | 37.30936 | -117.45226 | 25832 ft | 225 kts | 268° |
| 2026-05-04 06:53 | 37.31090 | -117.47184 | 25835 ft | 226 kts | 268° |
| 2026-05-04 06:53 | 37.31244 | -117.49146 | 25831 ft | 226 kts | 268° |
| 2026-05-04 06:53 | 37.31397 | -117.51107 | 25836 ft | 226 kts | 268° |
| 2026-05-04 06:54 | 37.31549 | -117.53079 | 25834 ft | 227 kts | 268° |
| 2026-05-04 06:54 | 37.31702 | -117.55053 | 25830 ft | 227 kts | 268° |
| 2026-05-04 06:54 | 37.31854 | -117.57029 | 25830 ft | 227 kts | 268° |
| 2026-05-04 06:54 | 37.32005 | -117.58975 | 25830 ft | 227 kts | 268° |
| 2026-05-04 06:55 | 37.32156 | -117.60947 | 25838 ft | 227 kts | 268° |
| 2026-05-04 06:55 | 37.32306 | -117.62927 | 25830 ft | 227 kts | 268° |
| 2026-05-04 06:55 | 37.32456 | -117.64902 | 25829 ft | 227 kts | 268° |
| 2026-05-04 06:55 | 37.32608 | -117.66872 | 25829 ft | 226 kts | 268° |
| 2026-05-04 06:56 | 37.32759 | -117.68840 | 25838 ft | 227 kts | 268° |
| 2026-05-04 06:57 | 37.33789 | -117.82554 | 25837 ft | 227 kts | 268° |
| 2026-05-04 06:58 | 37.33936 | -117.84532 | 25833 ft | 228 kts | 268° |
| 2026-05-04 06:58 | 37.34083 | -117.86511 | 25830 ft | 228 kts | 268° |
| 2026-05-04 06:58 | 37.34231 | -117.88493 | 25828 ft | 228 kts | 268° |
| 2026-05-04 06:58 | 37.34379 | -117.90472 | 25828 ft | 227 kts | 268° |
| 2026-05-04 06:59 | 37.34525 | -117.92446 | 25826 ft | 227 kts | 268° |
| 2026-05-04 06:59 | 37.34671 | -117.94416 | 25828 ft | 226 kts | 268° |
| 2026-05-04 06:59 | 37.34816 | -117.96343 | 25821 ft | 223 kts | 268° |
| 2026-05-04 06:59 | 37.34960 | -117.98279 | 25836 ft | 223 kts | 268° |
| 2026-05-04 07:01 | 37.35941 | -118.11918 | 25826 ft | 223 kts | 267° |
| 2026-05-04 07:01 | 37.36081 | -118.13830 | 25826 ft | 222 kts | 268° |
| 2026-05-04 07:02 | 37.36223 | -118.15767 | 25838 ft | 223 kts | 268° |
| 2026-05-04 07:02 | 37.36362 | -118.17704 | 25833 ft | 223 kts | 268° |
| 2026-05-04 07:02 | 37.36503 | -118.19656 | 25840 ft | 224 kts | 268° |
| 2026-05-04 07:02 | 37.36628 | -118.21419 | 25834 ft | 225 kts | 268° |
| 2026-05-04 07:03 | 37.36767 | -118.23381 | 25836 ft | 226 kts | 268° |
| 2026-05-04 07:03 | 37.36906 | -118.25353 | 25835 ft | 227 kts | 268° |
| 2026-05-04 07:03 | 37.37046 | -118.27331 | 25843 ft | 228 kts | 268° |
| 2026-05-04 07:03 | 37.37186 | -118.29315 | 25832 ft | 228 kts | 268° |
| 2026-05-04 07:04 | 37.37326 | -118.31275 | 25830 ft | 228 kts | 268° |
| 2026-05-04 07:04 | 37.37467 | -118.33264 | 25825 ft | 228 kts | 268° |
| 2026-05-04 07:04 | 37.37607 | -118.35241 | 25824 ft | 227 kts | 268° |
| 2026-05-04 07:04 | 37.37746 | -118.37221 | 25826 ft | 226 kts | 267° |
| 2026-05-04 07:05 | 37.37861 | -118.39190 | 25829 ft | 225 kts | 266° |
| 2026-05-04 07:05 | 37.37951 | -118.41150 | 25829 ft | 225 kts | 266° |
| 2026-05-04 07:05 | 37.38035 | -118.43108 | 25830 ft | 224 kts | 266° |
| 2026-05-04 07:05 | 37.38118 | -118.45064 | 25830 ft | 224 kts | 266° |
| 2026-05-04 07:06 | 37.38287 | -118.48939 | 25835 ft | 224 kts | 266° |
| 2026-05-04 07:06 | 37.38375 | -118.50891 | 25832 ft | 224 kts | 266° |
| 2026-05-04 07:06 | 37.38463 | -118.52844 | 25827 ft | 223 kts | 266° |
| 2026-05-04 07:07 | 37.38552 | -118.54791 | 25830 ft | 223 kts | 266° |
| 2026-05-04 07:08 | 37.39166 | -118.68037 | 25624 ft | 196 kts | 265° |
| 2026-05-04 07:09 | 37.39239 | -118.69732 | 25637 ft | 192 kts | 265° |
| 2026-05-04 07:09 | 37.39308 | -118.71365 | 25497 ft | 182 kts | 265° |
| 2026-05-04 07:09 | 37.39378 | -118.72935 | 25602 ft | 174 kts | 264° |
| 2026-05-04 07:09 | 37.39444 | -118.74469 | 25448 ft | 180 kts | 264° |
| 2026-05-04 07:10 | 37.39505 | -118.76064 | 25249 ft | 183 kts | 264° |
| 2026-05-04 07:10 | 37.39568 | -118.77665 | 25032 ft | 184 kts | 264° |
| 2026-05-04 07:12 | 37.40068 | -118.89153 | 23654 ft | 183 kts | 265° |
| 2026-05-04 07:12 | 37.40143 | -118.90729 | 23466 ft | 179 kts | 264° |
| 2026-05-04 07:12 | 37.40213 | -118.92271 | 23244 ft | 174 kts | 265° |
| 2026-05-04 07:12 | 37.40275 | -118.93771 | 23041 ft | 170 kts | 264° |
| 2026-05-04 07:13 | 37.40332 | -118.95226 | 22844 ft | 168 kts | 264° |
| 2026-05-04 07:13 | 37.40392 | -118.96680 | 22646 ft | 166 kts | 264° |
| 2026-05-04 07:13 | 37.40451 | -118.98128 | 22467 ft | 166 kts | 264° |
| 2026-05-04 07:14 | 37.40691 | -119.03985 | 21667 ft | 169 kts | 264° |
| 2026-05-04 07:14 | 37.40753 | -119.05463 | 21467 ft | 170 kts | 264° |
| 2026-05-04 07:15 | 37.40817 | -119.06933 | 21285 ft | 172 kts | 264° |
| 2026-05-04 07:15 | 37.40878 | -119.08436 | 21082 ft | 173 kts | 264° |
| 2026-05-04 07:15 | 37.40939 | -119.09949 | 20887 ft | 174 kts | 264° |
| 2026-05-04 07:15 | 37.41001 | -119.11475 | 20690 ft | 175 kts | 264° |
| 2026-05-04 07:16 | 37.41064 | -119.13007 | 20493 ft | 176 kts | 264° |
| 2026-05-04 07:16 | 37.41126 | -119.14541 | 20235 ft | 173 kts | 265° |
| 2026-05-04 07:16 | 37.41189 | -119.16043 | 20019 ft | 171 kts | 264° |
| 2026-05-04 07:16 | 37.41252 | -119.17523 | 19802 ft | 169 kts | 264° |
| 2026-05-04 07:17 | 37.41312 | -119.18994 | 19616 ft | 168 kts | 264° |
| 2026-05-04 07:17 | 37.41366 | -119.20437 | 19407 ft | 166 kts | 264° |
| 2026-05-04 07:17 | 37.41429 | -119.21889 | 19216 ft | 166 kts | 264° |
| 2026-05-04 07:17 | 37.41489 | -119.23342 | 19031 ft | 167 kts | 264° |
| 2026-05-04 07:18 | 37.41547 | -119.24803 | 18843 ft | 169 kts | 264° |
| 2026-05-04 07:18 | 37.41603 | -119.26295 | 18510 ft | 170 kts | 264° |
| 2026-05-04 07:18 | 37.41658 | -119.27727 | 18082 ft | 159 kts | 263° |
| 2026-05-04 07:18 | 37.41712 | -119.29107 | 17686 ft | 157 kts | 263° |
| 2026-05-04 07:19 | 37.41772 | -119.30480 | 17300 ft | 157 kts | 264° |
| 2026-05-04 07:19 | 37.41831 | -119.31857 | 16911 ft | 158 kts | 263° |
| 2026-05-04 07:19 | 37.41888 | -119.33217 | 16518 ft | 158 kts | 263° |
| 2026-05-04 07:19 | 37.41944 | -119.34580 | 16166 ft | 155 kts | 263° |
| 2026-05-04 07:20 | 37.41999 | -119.35921 | 15820 ft | 153 kts | 263° |
| 2026-05-04 07:20 | 37.42051 | -119.37247 | 15470 ft | 151 kts | 263° |
| 2026-05-04 07:20 | 37.42102 | -119.38568 | 15069 ft | 151 kts | 263° |
| 2026-05-04 07:20 | 37.42151 | -119.39889 | 14654 ft | 151 kts | 263° |
| 2026-05-04 07:22 | 37.42492 | -119.48819 | 11815 ft | 147 kts | 263° |
| 2026-05-04 07:22 | 37.42547 | -119.50099 | 11358 ft | 146 kts | 263° |
| 2026-05-04 07:23 | 37.42594 | -119.51381 | 10955 ft | 147 kts | 263° |
| 2026-05-04 07:23 | 37.42642 | -119.52650 | 10524 ft | 147 kts | 263° |
| 2026-05-04 07:23 | 37.42688 | -119.53935 | 10084 ft | 147 kts | 263° |
| 2026-05-04 07:23 | 37.42735 | -119.55212 | 9623 ft | 146 kts | 263° |
| 2026-05-04 07:24 | 37.42781 | -119.56471 | 9137 ft | 140 kts | 262° |
| 2026-05-04 07:24 | 37.42823 | -119.57679 | 8728 ft | 137 kts | 263° |
| 2026-05-04 07:24 | 37.42869 | -119.58867 | 8270 ft | 133 kts | 263° |
| 2026-05-04 07:24 | 37.42922 | -119.59926 | 7821 ft | 112 kts | 262° |
| 2026-05-04 07:25 | 37.42970 | -119.60850 | 7401 ft | 104 kts | 261° |
| 2026-05-04 07:26 | 37.43124 | -119.66131 | 6561 ft | 79 kts | 258° |
| 2026-05-04 07:27 | 37.43139 | -119.66810 | 6449 ft | 76 kts | 258° |
| 2026-05-04 07:27 | 37.43168 | -119.67461 | 6305 ft | 73 kts | 258° |
| 2026-05-04 07:27 | 37.43199 | -119.68085 | 6193 ft | 72 kts | 257° |
| 2026-05-04 07:27 | 37.43210 | -119.68729 | 6253 ft | 75 kts | 253° |
| 2026-05-04 07:28 | 37.43189 | -119.69434 | 6308 ft | 88 kts | 257° |
| 2026-05-04 07:28 | 37.43209 | -119.70227 | 6283 ft | 94 kts | 261° |
| 2026-05-04 07:28 | 37.43256 | -119.71078 | 6334 ft | 99 kts | 260° |
| 2026-05-04 07:28 | 37.43298 | -119.71948 | 6384 ft | 101 kts | 259° |
| 2026-05-04 07:29 | 37.43342 | -119.72819 | 6335 ft | 98 kts | 260° |
| 2026-05-04 07:29 | 37.43368 | -119.73670 | 6274 ft | 97 kts | 259° |
| 2026-05-04 07:29 | 37.43410 | -119.74515 | 6174 ft | 96 kts | 260° |
| 2026-05-04 07:29 | 37.43454 | -119.75353 | 6144 ft | 97 kts | 259° |
| 2026-05-04 07:30 | 37.43487 | -119.76183 | 6080 ft | 96 kts | 259° |
| 2026-05-04 07:30 | 37.43521 | -119.77023 | 6005 ft | 96 kts | 259° |
| 2026-05-04 07:30 | 37.43549 | -119.77861 | 5938 ft | 96 kts | 259° |
| 2026-05-04 07:30 | 37.43573 | -119.78708 | 5889 ft | 98 kts | 260° |
| 2026-05-04 07:31 | 37.43597 | -119.79565 | 5788 ft | 95 kts | 263° |
| 2026-05-04 07:31 | 37.43627 | -119.80381 | 5701 ft | 93 kts | 260° |
| 2026-05-04 07:33 | 37.43837 | -119.86631 | 5340 ft | 108 kts | 263° |
| 2026-05-04 07:33 | 37.43871 | -119.87571 | 5247 ft | 108 kts | 264° |
| 2026-05-04 07:33 | 37.43901 | -119.88517 | 5179 ft | 109 kts | 265° |
| 2026-05-04 07:33 | 37.43935 | -119.89466 | 5081 ft | 109 kts | 265° |
| 2026-05-04 07:34 | 37.43982 | -119.90416 | 5011 ft | 109 kts | 265° |
| 2026-05-04 07:34 | 37.44016 | -119.91371 | 4921 ft | 109 kts | 264° |
| 2026-05-04 07:34 | 37.44039 | -119.92308 | 4809 ft | 108 kts | 265° |
| 2026-05-04 07:34 | 37.44062 | -119.93267 | 4762 ft | 111 kts | 266° |
| 2026-05-04 07:35 | 37.44095 | -119.94250 | 4707 ft | 113 kts | 266° |
| 2026-05-04 07:35 | 37.44133 | -119.95234 | 4620 ft | 111 kts | 266° |
| 2026-05-04 07:35 | 37.44170 | -119.96192 | 4529 ft | 108 kts | 267° |
| 2026-05-04 07:35 | 37.44209 | -119.97134 | 4452 ft | 107 kts | 267° |
| 2026-05-04 07:36 | 37.44240 | -119.98077 | 4388 ft | 109 kts | 268° |
| 2026-05-04 07:36 | 37.44279 | -119.99031 | 4318 ft | 111 kts | 274° |
| 2026-05-04 07:38 | 37.45480 | -120.05663 | 3733 ft | 116 kts | 275° |
| 2026-05-04 07:38 | 37.45599 | -120.06663 | 3686 ft | 115 kts | 274° |
| 2026-05-04 07:38 | 37.45666 | -120.07660 | 3527 ft | 115 kts | 272° |
| 2026-05-04 07:38 | 37.45710 | -120.08666 | 3349 ft | 116 kts | 270° |
| 2026-05-04 07:39 | 37.45774 | -120.09682 | 3142 ft | 117 kts | 272° |
| 2026-05-04 07:39 | 37.45836 | -120.10708 | 2969 ft | 116 kts | 271° |
| 2026-05-04 07:39 | 37.45869 | -120.11583 | 2793 ft | 117 kts | 271° |
| 2026-05-04 07:39 | 37.45900 | -120.12571 | 2727 ft | 107 kts | 270° |
| 2026-05-04 07:40 | 37.45943 | -120.13477 | 2711 ft | 103 kts | 272° |
| 2026-05-04 07:40 | 37.46009 | -120.14365 | 2652 ft | 105 kts | 276° |
| 2026-05-04 07:40 | 37.46083 | -120.15285 | 2629 ft | 107 kts | 277° |
| 2026-05-04 07:40 | 37.46176 | -120.16199 | 2660 ft | 105 kts | 276° |
| 2026-05-04 07:41 | 37.46259 | -120.17104 | 2681 ft | 102 kts | 276° |
| 2026-05-04 07:41 | 37.46346 | -120.17996 | 2692 ft | 102 kts | 278° |
| 2026-05-04 07:41 | 37.46438 | -120.18896 | 2660 ft | 106 kts | 277° |
| 2026-05-04 07:41 | 37.46519 | -120.19834 | 2641 ft | 108 kts | 276° |
| 2026-05-04 07:42 | 37.46598 | -120.20777 | 2734 ft | 109 kts | 277° |
| 2026-05-04 07:42 | 37.46689 | -120.21712 | 2848 ft | 108 kts | 278° |
| 2026-05-04 07:42 | 37.46814 | -120.22608 | 2906 ft | 110 kts | 281° |
| 2026-05-04 07:42 | 37.46908 | -120.23557 | 3006 ft | 109 kts | 274° |
| 2026-05-04 07:43 | 37.46939 | -120.24509 | 3112 ft | 108 kts | 271° |
| 2026-05-04 07:43 | 37.46959 | -120.25464 | 3196 ft | 110 kts | 272° |
| 2026-05-04 07:43 | 37.46996 | -120.26438 | 3257 ft | 113 kts | 274° |
| 2026-05-04 07:43 | 37.47048 | -120.27420 | 3343 ft | 112 kts | 274° |
| 2026-05-04 07:44 | 37.47088 | -120.28392 | 3442 ft | 111 kts | 274° |
| 2026-05-04 07:44 | 37.47148 | -120.29367 | 3506 ft | 112 kts | 274° |
| 2026-05-04 07:44 | 37.47210 | -120.30332 | 3594 ft | 112 kts | 275° |
| 2026-05-04 07:44 | 37.47281 | -120.31306 | 3687 ft | 112 kts | 276° |
| 2026-05-04 07:45 | 37.47336 | -120.32288 | 3763 ft | 113 kts | 272° |
| 2026-05-04 07:45 | 37.47383 | -120.33287 | 3811 ft | 116 kts | 275° |
| 2026-05-04 07:45 | 37.47448 | -120.34300 | 3875 ft | 115 kts | 276° |
| 2026-05-04 07:45 | 37.47525 | -120.35293 | 3954 ft | 115 kts | 275° |
| 2026-05-04 07:46 | 37.47627 | -120.36323 | 3942 ft | 121 kts | 278° |
| 2026-05-04 07:46 | 37.47741 | -120.37383 | 3950 ft | 124 kts | 277° |
| 2026-05-04 07:46 | 37.47844 | -120.38460 | 3954 ft | 125 kts | 275° |
| 2026-05-04 07:46 | 37.47844 | -120.39562 | 3880 ft | 130 kts | 273° |
| 2026-05-04 07:47 | 37.47904 | -120.40708 | 3812 ft | 132 kts | 275° |
| 2026-05-04 07:47 | 37.47982 | -120.41851 | 3786 ft | 130 kts | 275° |
| 2026-05-04 07:47 | 37.48068 | -120.42978 | 3773 ft | 129 kts | 276° |
| 2026-05-04 07:49 | 37.48724 | -120.50653 | 3763 ft | 126 kts | 276° |
| 2026-05-04 07:49 | 37.48819 | -120.51751 | 3759 ft | 127 kts | 276° |
| 2026-05-04 07:49 | 37.48914 | -120.52851 | 3756 ft | 126 kts | 276° |
| 2026-05-04 07:50 | 37.48973 | -120.53958 | 3745 ft | 127 kts | 270° |
| 2026-05-04 07:50 | 37.48892 | -120.55060 | 3741 ft | 127 kts | 260° |
| 2026-05-04 07:50 | 37.48707 | -120.56144 | 3738 ft | 126 kts | 257° |
| 2026-05-04 07:50 | 37.48495 | -120.57217 | 3736 ft | 126 kts | 256° |
| 2026-05-04 07:51 | 37.48276 | -120.58265 | 3736 ft | 124 kts | 256° |
| 2026-05-04 07:51 | 37.48056 | -120.59300 | 3734 ft | 121 kts | 256° |
| 2026-05-04 07:51 | 37.47836 | -120.60323 | 3736 ft | 121 kts | 256° |
| 2026-05-04 07:51 | 37.47611 | -120.61339 | 3736 ft | 120 kts | 251° |
| 2026-05-04 07:52 | 37.47146 | -120.62209 | 3738 ft | 121 kts | 230° |
| 2026-05-04 07:52 | 37.46579 | -120.62988 | 3738 ft | 121 kts | 227° |
| 2026-05-04 07:52 | 37.46074 | -120.63816 | 3734 ft | 119 kts | 257° |
| 2026-05-04 07:52 | 37.46120 | -120.64838 | 3739 ft | 118 kts | 285° |
| 2026-05-04 07:53 | 37.46446 | -120.65781 | 3738 ft | 118 kts | 287° |
| 2026-05-04 07:54 | 37.49426 | -120.71381 | 3441 ft | 101 kts | 320° |
| 2026-05-04 07:55 | 37.49965 | -120.71950 | 3265 ft | 100 kts | 318° |
| 2026-05-04 07:55 | 37.50435 | -120.72594 | 3022 ft | 103 kts | 302° |
| 2026-05-04 07:55 | 37.50794 | -120.73355 | 2842 ft | 100 kts | 295° |
| 2026-05-04 07:55 | 37.51122 | -120.74108 | 2720 ft | 96 kts | 290° |
| 2026-05-04 07:56 | 37.51409 | -120.74872 | 2566 ft | 97 kts | 294° |
| 2026-05-04 07:56 | 37.51775 | -120.75583 | 2410 ft | 97 kts | 305° |
| 2026-05-04 07:56 | 37.52198 | -120.76229 | 2295 ft | 94 kts | 307° |
| 2026-05-04 07:56 | 37.52631 | -120.76830 | 2205 ft | 91 kts | 307° |
| 2026-05-04 07:57 | 37.53027 | -120.77452 | 2095 ft | 91 kts | 301° |
| 2026-05-04 07:57 | 37.53371 | -120.78123 | 1961 ft | 94 kts | 296° |
| 2026-05-04 07:57 | 37.53702 | -120.78824 | 1849 ft | 95 kts | 295° |
| 2026-05-04 07:57 | 37.54043 | -120.79531 | 1740 ft | 94 kts | 296° |
| 2026-05-04 07:58 | 37.54412 | -120.80221 | 1630 ft | 95 kts | 301° |
| 2026-05-04 07:58 | 37.54790 | -120.80886 | 1569 ft | 89 kts | 301° |
| 2026-05-04 07:58 | 37.55141 | -120.81514 | 1535 ft | 86 kts | 303° |
| 2026-05-04 07:58 | 37.55484 | -120.82133 | 1491 ft | 86 kts | 299° |
| 2026-05-04 07:59 | 37.55586 | -120.82342 | 1466 ft | 87 kts | 298° |